NCAR-RAP Real-Time Weather Data

Output produced by METARs form (10 April 2020  07:20 UTC)
found at http://weather.rap.ucar.edu/surface/
 
KSTC 100653Z AUTO 30009KT 10SM CLR M02/M06 A3009 RMK AO2 SLP211 T10221061
KSTC 100553Z AUTO 30006KT 10SM CLR M03/M07 A3009 RMK AO2 SLP211 T10331072 10028 21033 400391033 53005
KSTC 100453Z AUTO 30007KT 10SM CLR M02/M07 A3008 RMK AO2 SLP208 T10221072
KSTC 100353Z 31009KT 10SM CLR M02/M07 A3007 RMK AO2 SLP206 T10171067
KSTC 100253Z 31014KT 10SM CLR M01/M07 A3007 RMK AO2 SLP205 T10111067 52017
KSTC 100153Z 31009KT 10SM CLR 00/M06 A3006 RMK AO2 SLP199 T00001061
KSTC 100053Z 31013G25KT 10SM SCT047 01/M07 A3004 RMK AO2 SLP193 T00111067
KSTC 092353Z 31016G23KT 10SM FEW049 03/M07 A3002 RMK AO2 PK WND 31026/2257 SLP186 60000 T00281072 10039 20006 53014
KSTC 092253Z 31016G28KT 10SM FEW049 03/M08 A3001 RMK AO2 PK WND 30031/2229 SLP182 T00331078
KSTC 092153Z 32016G25KT 10SM OVC060 03/M09 A2999 RMK AO2 PK WND 31030/2106 SLP176 T00281089
KSTC 092053Z 33012G22KT 10SM BKN041 BKN060 03/M07 A2998 RMK AO2 PK WND 34030/2026 SNB1959E44 SLP172 P0000 60000 T00331072 51014
KSTC 091953Z 32014G25KT 9SM FEW046 SCT055 BKN075 03/M07 A2998 RMK AO2 PK WND 32031/1936 SNB40E50 SLP171 P0000 T00281067
KSTC 091853Z 32018G26KT 10SM SCT050 BKN060 03/M08 A2996 RMK AO2 PK WND 31031/1837 SLP164 T00281078
KSTC 091753Z 34018G28KT 10SM FEW041 SCT065 BKN080 03/M08 A2994 RMK AO2 PK WND 32031/1658 SLP157 60004 T00281078 10028 21028 $
KSTC 091653Z 33015G32KT 10SM FEW038 BKN050 BKN070 01/M06 A2992 RMK AO2 PK WND 31032/1651 SNB00E22 SLP152 P0000 T00111061 $
KSTC 091602Z 32017G27KT 8SM -SN BKN038 BKN055 BKN095 00/M06 A2990 RMK AO2 PK WND 32027/1602 SNB00 P0000 T00001056 $
KSTC 091553Z 32013G20KT 10SM BKN026 BKN070 BKN095 M01/M05 A2990 RMK AO2 PK WND 31031/1520 UPB46E50SNB21E46 SLP143 P0002 T10111050 $
KSTC 091543Z 32012KT 5SM -SN BR BKN016 BKN032 OVC095 M02/M04 A2990 RMK AO2 PK WND 31031/1520 SNB21 P0002 T10221044 $
KSTC 091541Z 32014KT 1 1/4SM -SN BR BKN016 BKN032 OVC095 M02/M04 A2989 RMK AO2 PK WND 31031/1520 SNB21 P0002 T10221044 $
KSTC 091537Z 32012G27KT 1/4SM -SN FZFG BKN014 BKN025 OVC070 M03/M04 A2989 RMK AO2 PK WND 31031/1520 SNB21 P0002 T10281044 $
KSTC 091526Z 32020G31KT 1/4SM +SN FZFG SCT008 BKN028 OVC044 M02/M04 A2989 RMK AO2 PK WND 31031/1520 SNB21 P0000 T10221039 $
KSTC 091524Z 31022G31KT 1/2SM SN FEW011 BKN031 OVC044 M02/M04 A2989 RMK AO2 PK WND 31031/1520 SNB21 P0000 T10171044 $
KSTC 091522Z 31024G31KT 2SM -SN FEW017 BKN032 OVC045 M01/M04 A2989 RMK AO2 PK WND 31031/1520 SNB21 P0000 T10061039 $
KSTC 091445Z 32015G27KT 10SM BKN026 M01/M04 A2987 RMK AO2 PK WND 31027/1437 T10061044
KSTC 091353Z 30009G18KT 10SM FEW048 OVC060 M01/M04 A2985 RMK AO2 SNE17B27E33 SLP128 P0001 T10111044
KSTC 091322Z 32010KT 9SM SCT019 BKN035 OVC044 M02/M04 A2985 RMK AO2 SNE17 P0001 T10171039
KSTC 091311Z 31011KT 3SM -SN BR BKN015 OVC042 M02/M03 A2985 RMK AO2 P0001 T10221033
KSTC 091307Z 31010KT 1SM -SN BR BKN015 BKN022 OVC044 M02/M03 A2985 RMK AO2 P0001 T10221033
KSTC 091253Z 32010G22KT 1/4SM +SN FZFG BKN011 BKN023 OVC110 M03/M04 A2985 RMK AO2 SNB42 SLP127 P0001 T10281039
KSTC 091246Z 33011G23KT 1/4SM +SN FZFG SCT015 BKN023 BKN110 M02/M04 A2985 RMK AO2 SNB42 P0000 T10221044
KSTC 091243Z 34015G23KT 1SM -SN FEW023 BKN029 BKN110 M02/M05 A2985 RMK AO2 SNB42 P0000 T10171050
KSTC 091153Z 29014G22KT 10SM BKN065 00/M06 A2983 RMK AO2 SLP120 T00001056 10011 21011 53001
KSTC 091053Z AUTO 28008KT 10SM BKN060 M01/M06 A2983 RMK AO2 SLP117 T10061056 $
KSTC 090953Z AUTO 28010KT 10SM CLR M01/M06 A2983 RMK AO2 SLP116 T10061061 $
KSTC 090853Z AUTO 29012KT 10SM CLR 00/M06 A2983 RMK AO2 SLP117 T00001056 56009 $